Time;durP1;ratioP1;P1;durP2;ratioP2;P2;SDS_P1;SDS_P2;PMS_P1;PMS_P2;Temp;Humidity;BMP_temperature;BMP_pressure;BME280_temperature;BME280_humidity;BME280_pressure;Samples;Min_cycle;Max_cycle;Signal;HPM_P1;HPM_P2
2021/03/08 00:01:51;;;;;;;40.90;16.97;;;0.50;99.70;;;;;;5053592;28;20448;-69
2021/03/08 00:04:17;;;;;;;40.50;17.37;;;0.40;99.70;;;;;;5053969;28;20940;-69
2021/03/08 00:06:44;;;;;;;38.90;16.90;;;0.30;99.70;;;;;;5053602;28;20619;-69
2021/03/08 00:09:11;;;;;;;41.60;16.80;;;0.20;99.70;;;;;;5053926;28;20533;-69
2021/03/08 00:11:37;;;;;;;40.47;17.37;;;0.20;99.70;;;;;;5053793;28;20505;-68
2021/03/08 00:14:03;;;;;;;44.70;17.93;;;0.20;99.70;;;;;;5053894;28;20454;-69
2021/03/08 00:16:29;;;;;;;40.80;17.33;;;0.20;99.70;;;;;;5053467;28;20475;-69
2021/03/08 00:18:56;;;;;;;37.17;16.97;;;0.10;99.70;;;;;;5053436;28;20439;-69
2021/03/08 00:21:22;;;;;;;41.10;16.40;;;0.00;99.70;;;;;;5053542;28;20450;-69
2021/03/08 00:23:49;;;;;;;44.73;18.07;;;0.00;99.70;;;;;;5053766;28;20447;-68
2021/03/08 00:26:15;;;;;;;36.97;17.47;;;0.00;99.70;;;;;;5053304;28;20447;-69
2021/03/08 00:28:41;;;;;;;42.77;17.40;;;0.00;99.70;;;;;;5053277;28;20470;-69
2021/03/08 00:31:07;;;;;;;44.57;17.93;;;0.10;99.70;;;;;;5053500;28;20451;-69
2021/03/08 00:33:33;;;;;;;42.37;16.90;;;0.00;99.70;;;;;;5053307;28;20451;-69
2021/03/08 00:36:00;;;;;;;39.40;16.40;;;-0.10;99.70;;;;;;5053080;28;20450;-69
2021/03/08 00:38:26;;;;;;;43.80;16.63;;;-0.10;99.70;;;;;;5053203;28;20446;-68
2021/03/08 00:40:53;;;;;;;41.40;17.57;;;-0.20;99.70;;;;;;5053234;28;20837;-69
2021/03/08 00:43:19;;;;;;;38.87;16.67;;;-0.20;99.70;;;;;;5053308;28;20446;-68
2021/03/08 00:45:46;;;;;;;38.60;16.07;;;-0.20;99.70;;;;;;5054241;28;20843;-69
2021/03/08 00:48:12;;;;;;;38.40;16.57;;;-0.30;99.70;;;;;;5053161;28;20447;-69
2021/03/08 00:50:38;;;;;;;41.93;17.03;;;-0.20;99.70;;;;;;5053021;28;20468;-69
2021/03/08 00:53:04;;;;;;;41.03;17.73;;;-0.30;99.70;;;;;;5053014;28;20448;-69
2021/03/08 00:55:31;;;;;;;39.83;16.70;;;-0.20;99.70;;;;;;5052802;28;20452;-69
2021/03/08 00:57:58;;;;;;;39.93;16.30;;;-0.20;99.70;;;;;;5052882;28;20871;-69
2021/03/08 01:00:26;;;;;;;41.80;16.83;;;-0.30;99.70;;;;;;5052877;28;20486;-69
2021/03/08 01:02:53;;;;;;;42.73;16.77;;;-0.30;99.70;;;;;;5052473;28;20440;-69
2021/03/08 01:05:20;;;;;;;39.07;16.30;;;-0.30;99.70;;;;;;5052573;28;20455;-69
2021/03/08 01:07:46;;;;;;;39.07;16.33;;;-0.40;99.70;;;;;;5052576;28;20439;-69
2021/03/08 01:10:17;;;;;;;40.37;16.30;;;-0.30;99.70;;;;;;5052686;28;20468;-69
2021/03/08 01:12:44;;;;;;;33.03;15.50;;;-0.20;99.70;;;;;;5052703;28;20444;-69
2021/03/08 01:15:12;;;;;;;40.23;16.60;;;-0.30;99.70;;;;;;5052345;28;20452;-69
2021/03/08 01:17:39;;;;;;;38.37;15.80;;;-0.40;99.70;;;;;;5052288;28;20452;-69
2021/03/08 01:20:08;;;;;;;42.23;17.53;;;-0.60;99.70;;;;;;5052182;28;20487;-69
2021/03/08 01:22:35;;;;;;;41.57;15.73;;;-0.50;99.70;;;;;;5052168;28;20479;-69
2021/03/08 01:25:01;;;;;;;38.33;15.97;;;-0.40;99.70;;;;;;5052091;28;20501;-69
2021/03/08 01:27:27;;;;;;;44.00;17.07;;;-0.40;99.70;;;;;;5051721;28;20990;-69
2021/03/08 01:29:53;;;;;;;39.27;15.50;;;-0.60;99.70;;;;;;5052152;28;20464;-70
2021/03/08 01:32:20;;;;;;;39.03;16.00;;;-0.60;99.70;;;;;;5052301;28;20455;-69
2021/03/08 01:34:46;;;;;;;42.07;16.57;;;-0.60;99.70;;;;;;5052124;28;20451;-69
2021/03/08 01:37:13;;;;;;;40.73;17.97;;;-0.60;99.70;;;;;;5051754;28;20443;-69
2021/03/08 01:39:39;;;;;;;41.00;16.50;;;-0.50;99.70;;;;;;5051902;28;21108;-69
2021/03/08 01:42:05;;;;;;;39.27;16.50;;;-0.50;99.70;;;;;;5051841;28;20826;-70
2021/03/08 01:44:31;;;;;;;37.37;16.30;;;-0.50;99.70;;;;;;5051892;28;20980;-69
2021/03/08 01:46:58;;;;;;;45.53;18.00;;;-0.70;99.70;;;;;;5051554;28;20443;-69
2021/03/08 01:49:25;;;;;;;38.37;16.20;;;-0.70;99.70;;;;;;5051707;28;20486;-70
2021/03/08 01:51:51;;;;;;;43.67;16.77;;;-0.70;99.70;;;;;;5051833;28;20436;-69
2021/03/08 01:54:17;;;;;;;40.97;16.07;;;-0.70;99.70;;;;;;5051618;28;20440;-69
2021/03/08 01:56:43;;;;;;;41.10;16.57;;;-0.70;99.70;;;;;;5051369;28;20466;-69
2021/03/08 01:59:10;;;;;;;44.17;17.00;;;-0.80;99.70;;;;;;5051474;28;20464;-70
2021/03/08 02:01:36;;;;;;;39.80;16.90;;;-0.90;99.70;;;;;;5051355;28;20458;-69
2021/03/08 02:04:03;;;;;;;42.17;16.30;;;-0.70;99.70;;;;;;5051469;28;20944;-70
2021/03/08 02:06:30;;;;;;;37.83;16.50;;;-0.80;99.70;;;;;;5051263;28;20826;-69
2021/03/08 02:08:57;;;;;;;37.33;15.80;;;-0.90;99.70;;;;;;5051089;28;20900;-69
2021/03/08 02:11:23;;;;;;;38.77;15.50;;;-0.90;99.70;;;;;;5051436;28;20444;-69
2021/03/08 02:14:08;;;;;;;43.17;17.50;;;-1.00;99.70;;;;;;5051454;28;20452;-70
2021/03/08 02:16:42;;;;;;;43.20;17.70;;;-1.00;99.70;;;;;;5051184;28;20444;-69
2021/03/08 02:19:54;;;;;;;41.43;16.83;;;-0.80;99.70;;;;;;5051116;28;20459;-70
2021/03/08 02:22:56;;;;;;;39.83;16.10;;;-0.80;99.70;;;;;;5051141;28;20454;-69
2021/03/08 02:25:35;;;;;;;39.70;16.30;;;-1.00;99.70;;;;;;5050841;28;20505;-69
2021/03/08 02:28:35;;;;;;;37.87;15.57;;;-1.00;99.70;;;;;;5051235;28;20439;-69
2021/03/08 02:31:07;;;;;;;39.97;16.80;;;-1.10;99.70;;;;;;5050914;28;20463;-69
2021/03/08 02:33:35;;;;;;;41.23;17.00;;;-1.00;99.70;;;;;;5050867;28;20468;-69
2021/03/08 02:36:05;;;;;;;34.40;15.53;;;-0.90;99.70;;;;;;5050610;28;20455;-69
2021/03/08 02:38:35;;;;;;;36.87;16.07;;;-0.70;99.70;;;;;;5050749;28;20447;-69
2021/03/08 02:41:06;;;;;;;36.00;14.77;;;-0.80;99.70;;;;;;5050600;28;20554;-69
2021/03/08 02:43:38;;;;;;;46.90;17.17;;;-0.80;99.70;;;;;;5050712;28;20444;-69
2021/03/08 02:46:09;;;;;;;39.40;15.27;;;-0.90;99.70;;;;;;5050587;28;20444;-69
2021/03/08 02:48:40;;;;;;;36.97;14.73;;;-1.00;99.70;;;;;;5050434;28;20443;-69
2021/03/08 02:51:08;;;;;;;36.20;15.27;;;-1.00;99.70;;;;;;5050585;28;20456;-69
2021/03/08 02:53:38;;;;;;;38.90;16.00;;;-0.90;99.70;;;;;;5050598;28;20844;-69
2021/03/08 02:56:08;;;;;;;41.70;16.70;;;-0.80;99.70;;;;;;5050278;28;20443;-70
2021/03/08 02:58:37;;;;;;;37.63;16.03;;;-0.80;99.70;;;;;;5050450;28;20451;-69
2021/03/08 03:01:04;;;;;;;38.43;15.17;;;-0.70;99.70;;;;;;5050363;28;20479;-69
2021/03/08 03:03:33;;;;;;;34.57;15.10;;;-0.90;99.70;;;;;;5050004;28;20957;-69
2021/03/08 03:06:01;;;;;;;40.17;17.30;;;-0.80;99.70;;;;;;5050050;28;20443;-69
2021/03/08 03:08:29;;;;;;;45.17;17.20;;;-0.80;99.70;;;;;;5050153;28;20824;-69
2021/03/08 03:10:56;;;;;;;42.63;15.90;;;-0.90;99.70;;;;;;5050165;28;20468;-69
2021/03/08 03:13:23;;;;;;;39.77;15.87;;;-1.00;99.70;;;;;;5050954;28;20448;-69
2021/03/08 03:15:51;;;;;;;37.40;16.60;;;-1.10;99.70;;;;;;5050493;28;20443;-69
2021/03/08 03:18:18;;;;;;;41.33;16.73;;;-1.20;99.70;;;;;;5050086;28;20448;-70
2021/03/08 03:20:50;;;;;;;39.77;16.53;;;-1.10;99.70;;;;;;5050111;28;20482;-69
2021/03/08 03:23:16;;;;;;;39.37;16.53;;;-1.20;99.70;;;;;;5050202;28;20471;-69
2021/03/08 03:25:45;;;;;;;34.70;15.07;;;-1.40;99.70;;;;;;5050114;28;20439;-69
2021/03/08 03:28:12;;;;;;;39.30;14.90;;;-1.30;99.70;;;;;;5050257;28;20447;-70
2021/03/08 03:30:39;;;;;;;44.80;15.47;;;-1.40;99.70;;;;;;5049926;28;20455;-70
2021/03/08 03:33:07;;;;;;;37.47;15.90;;;-1.30;99.70;;;;;;5049983;28;20517;-69
2021/03/08 03:35:34;;;;;;;41.10;17.23;;;-1.30;99.70;;;;;;5049698;28;20443;-70
2021/03/08 03:38:02;;;;;;;37.03;15.13;;;-1.40;99.70;;;;;;5049882;28;20478;-69
2021/03/08 03:40:28;;;;;;;44.50;16.10;;;-1.40;99.70;;;;;;5049756;28;20487;-70
2021/03/08 03:42:55;;;;;;;38.50;16.80;;;-1.30;99.70;;;;;;5050023;28;20451;-70
2021/03/08 03:45:23;;;;;;;39.03;15.10;;;-1.50;99.70;;;;;;5049908;28;20469;-69
2021/03/08 03:47:50;;;;;;;38.93;16.57;;;-1.50;99.70;;;;;;5050255;28;20454;-69
2021/03/08 03:50:18;;;;;;;34.83;15.60;;;-1.40;99.70;;;;;;5050900;28;20996;-69
2021/03/08 03:52:45;;;;;;;40.10;15.73;;;-1.40;99.70;;;;;;5050269;28;20444;-69
2021/03/08 03:55:15;;;;;;;35.77;15.60;;;-1.40;99.70;;;;;;5049932;28;20900;-69
2021/03/08 03:57:49;;;;;;;42.53;16.20;;;-1.60;99.70;;;;;;5050063;28;20497;-69
2021/03/08 04:00:19;;;;;;;35.77;15.40;;;-1.70;99.70;;;;;;5049726;28;20507;-69
2021/03/08 04:02:50;;;;;;;37.30;15.90;;;-1.60;99.70;;;;;;5049677;28;20490;-69
2021/03/08 04:05:21;;;;;;;35.10;15.87;;;-1.60;99.70;;;;;;5049472;28;20936;-69
2021/03/08 04:07:48;;;;;;;37.53;16.33;;;-1.60;99.70;;;;;;5049759;28;20447;-69
2021/03/08 04:10:16;;;;;;;36.37;16.50;;;-1.60;99.70;;;;;;5049562;28;20464;-69
2021/03/08 04:12:48;;;;;;;39.33;16.97;;;-1.70;99.70;;;;;;5049636;28;20470;-70
2021/03/08 04:15:16;;;;;;;37.37;16.30;;;-1.60;99.70;;;;;;5049296;28;20458;-69
2021/03/08 04:17:43;;;;;;;41.27;16.83;;;-1.70;99.70;;;;;;5049551;28;20450;-69
2021/03/08 04:20:13;;;;;;;44.17;17.30;;;-1.80;99.70;;;;;;5049335;28;20859;-69
2021/03/08 04:22:40;;;;;;;35.53;15.50;;;-1.70;99.70;;;;;;5049666;28;20880;-69
2021/03/08 04:25:09;;;;;;;35.10;14.80;;;-1.70;99.70;;;;;;5049324;28;20448;-69
2021/03/08 04:27:36;;;;;;;37.27;15.80;;;-1.80;99.70;;;;;;5049441;28;20498;-69
2021/03/08 04:30:04;;;;;;;39.73;15.73;;;-1.80;99.70;;;;;;5049343;28;20985;-69
2021/03/08 04:32:30;;;;;;;39.17;16.50;;;-1.70;99.70;;;;;;5049488;28;20452;-69
2021/03/08 04:34:56;;;;;;;38.60;15.30;;;-1.80;99.70;;;;;;5049226;28;20448;-69
2021/03/08 04:37:23;;;;;;;34.60;14.50;;;-1.80;99.70;;;;;;5049308;28;20455;-69
2021/03/08 04:39:51;;;;;;;39.53;15.70;;;-1.70;99.70;;;;;;5049249;28;20993;-70
2021/03/08 04:42:18;;;;;;;36.90;15.10;;;-1.60;99.70;;;;;;5049176;28;20515;-69
2021/03/08 04:44:46;;;;;;;35.20;15.03;;;-1.70;99.70;;;;;;5052137;28;20474;-69
2021/03/08 04:47:17;;;;;;;40.00;16.00;;;-1.70;99.70;;;;;;5107500;22;20494;-71
2021/03/08 04:49:45;;;;;;;38.17;16.00;;;-1.80;99.70;;;;;;5072013;28;20496;-70
2021/03/08 04:52:13;;;;;;;36.93;16.23;;;-1.70;99.70;;;;;;5072086;28;20442;-71
2021/03/08 04:54:43;;;;;;;41.07;16.80;;;-1.70;99.70;;;;;;5071921;28;20438;-70
2021/03/08 04:57:12;;;;;;;36.97;16.10;;;-1.70;99.70;;;;;;5071008;28;20535;-70
2021/03/08 04:59:38;;;;;;;37.90;15.30;;;-1.60;99.70;;;;;;5071766;28;20482;-71
2021/03/08 05:02:08;;;;;;;35.23;15.63;;;-1.40;99.70;;;;;;5070438;28;20451;-71
2021/03/08 05:04:38;;;;;;;37.33;15.40;;;-1.30;99.70;;;;;;5071792;28;21006;-71
2021/03/08 05:07:06;;;;;;;41.60;16.47;;;-1.40;99.70;;;;;;5070773;28;20459;-70
2021/03/08 05:09:33;;;;;;;39.60;16.10;;;-1.40;99.70;;;;;;5071799;28;20959;-71
2021/03/08 05:12:00;;;;;;;38.07;16.40;;;-1.50;99.70;;;;;;5071699;28;20446;-71
2021/03/08 05:14:28;;;;;;;35.30;15.80;;;-1.50;99.70;;;;;;5071454;28;20959;-71
2021/03/08 05:16:56;;;;;;;35.83;15.17;;;-1.20;99.70;;;;;;5070518;28;20470;-71
2021/03/08 05:19:24;;;;;;;36.87;14.97;;;-1.50;99.70;;;;;;5071340;28;20443;-69
2021/03/08 05:21:52;;;;;;;36.37;15.13;;;-1.40;99.70;;;;;;5071550;28;20526;-71
2021/03/08 05:24:20;;;;;;;39.80;15.97;;;-1.40;99.70;;;;;;5071323;28;20446;-71
2021/03/08 05:26:46;;;;;;;37.80;15.80;;;-1.50;99.70;;;;;;5070154;28;20467;-72
2021/03/08 05:29:13;;;;;;;37.20;16.50;;;-1.70;99.70;;;;;;5071286;28;20868;-71
2021/03/08 05:31:42;;;;;;;40.90;16.77;;;-1.70;99.70;;;;;;5071243;28;20870;-71
2021/03/08 05:34:10;;;;;;;35.73;15.93;;;-1.70;99.70;;;;;;5071193;28;20954;-71
2021/03/08 05:36:41;;;;;;;39.90;16.03;;;-1.70;99.70;;;;;;5070550;28;20884;-72
2021/03/08 05:39:10;;;;;;;38.47;16.43;;;-1.70;99.70;;;;;;5071346;28;20932;-71
2021/03/08 05:41:48;;;;;;;41.10;17.03;;;-1.80;99.70;;;;;;5071381;28;20862;-71
2021/03/08 05:44:18;;;;;;;36.63;15.80;;;-1.80;99.70;;;;;;5071093;28;20951;-71
2021/03/08 05:47:17;;;;;;;37.63;16.00;;;-1.90;99.70;;;;;;5069940;28;20853;-70
2021/03/08 05:50:01;;;;;;;35.60;15.30;;;-1.70;99.70;;;;;;5071024;28;20457;-70
2021/03/08 05:53:01;;;;;;;40.97;16.73;;;-1.90;99.70;;;;;;5070890;28;20817;-71
2021/03/08 05:55:42;;;;;;;41.87;17.67;;;-2.00;99.70;;;;;;5069049;28;20947;-71
2021/03/08 05:58:28;;;;;;;38.27;15.83;;;-2.10;99.70;;;;;;5070596;28;20504;-71
2021/03/08 06:01:27;;;;;;;37.23;15.80;;;-2.00;99.70;;;;;;5070686;28;21037;-73
2021/03/08 06:04:12;;;;;;;40.53;17.20;;;-2.00;99.70;;;;;;5069606;28;20450;-72
2021/03/08 06:06:57;;;;;;;35.27;15.30;;;-1.90;99.70;;;;;;5069972;28;20477;-73
2021/03/08 06:09:25;;;;;;;35.53;16.03;;;-1.90;99.70;;;;;;5070512;28;20955;-73
2021/03/08 06:12:05;;;;;;;35.53;16.13;;;-1.90;99.70;;;;;;5070410;28;20447;-74
2021/03/08 06:14:40;;;;;;;40.37;16.50;;;-1.90;99.70;;;;;;5070385;28;20959;-73
2021/03/08 06:17:07;;;;;;;42.40;16.37;;;-1.90;99.70;;;;;;5069589;28;20541;-72
2021/03/08 06:19:37;;;;;;;39.77;16.30;;;-1.80;99.70;;;;;;5070574;28;20776;-73
2021/03/08 06:22:07;;;;;;;38.23;16.50;;;-1.90;99.70;;;;;;5070138;28;20447;-71
2021/03/08 06:24:36;;;;;;;38.87;16.10;;;-1.80;99.70;;;;;;5063407;28;20447;-72
2021/03/08 06:27:04;;;;;;;37.17;16.73;;;-1.80;99.70;;;;;;5052566;28;20471;-71
2021/03/08 06:29:32;;;;;;;38.67;17.10;;;-1.80;99.70;;;;;;5050744;28;20439;-73
2021/03/08 06:31:59;;;;;;;38.93;16.80;;;-1.90;99.70;;;;;;5067473;28;20492;-72
2021/03/08 06:34:25;;;;;;;35.07;16.90;;;-1.90;99.70;;;;;;5067995;28;20435;-71
2021/03/08 06:36:54;;;;;;;53.57;19.97;;;-1.70;99.70;;;;;;5065373;28;20466;-72
2021/03/08 06:39:20;;;;;;;46.33;19.10;;;-1.70;99.70;;;;;;5062114;28;20829;-72
2021/03/08 06:41:48;;;;;;;51.47;20.20;;;-1.60;99.70;;;;;;5067882;28;20446;-72
2021/03/08 06:44:14;;;;;;;45.80;19.50;;;-1.40;99.70;;;;;;5068263;28;20443;-72
2021/03/08 06:46:41;;;;;;;55.80;20.03;;;-1.50;99.70;;;;;;5067360;28;20455;-72
2021/03/08 06:49:07;;;;;;;42.27;19.50;;;-1.60;99.70;;;;;;5064983;28;20447;-72
2021/03/08 06:51:33;;;;;;;40.57;18.13;;;-1.40;99.70;;;;;;5067874;28;20485;-72
2021/03/08 06:54:00;;;;;;;43.07;18.20;;;-1.30;99.70;;;;;;5060045;28;20459;-73
2021/03/08 06:56:27;;;;;;;42.57;17.37;;;-1.30;99.70;;;;;;5063875;28;20485;-71
2021/03/08 06:59:08;;;;;;;43.03;17.57;;;-1.30;99.70;;;;;;5065105;28;20439;-72
2021/03/08 07:01:35;;;;;;;39.30;17.50;;;-1.20;99.70;;;;;;5063247;28;20635;-72
2021/03/08 07:04:03;;;;;;;42.03;17.50;;;-1.10;99.70;;;;;;5066845;28;20447;-72
2021/03/08 07:06:29;;;;;;;40.60;18.10;;;-0.90;99.70;;;;;;5066526;28;20469;-73
2021/03/08 07:09:06;;;;;;;41.10;18.20;;;-1.00;99.70;;;;;;5061809;28;20501;-72
2021/03/08 07:11:33;;;;;;;46.03;18.40;;;-1.10;99.70;;;;;;5062585;28;20439;-74
2021/03/08 07:14:00;;;;;;;46.47;18.17;;;-1.10;99.70;;;;;;5064512;28;20467;-72
2021/03/08 07:16:38;;;;;;;44.17;18.30;;;-1.00;99.70;;;;;;5061130;28;20491;-72
2021/03/08 07:19:05;;;;;;;44.83;20.50;;;-1.00;99.70;;;;;;5056372;28;20627;-69
2021/03/08 07:21:31;;;;;;;40.90;17.60;;;-0.80;99.70;;;;;;5068842;28;20616;-73
2021/03/08 07:24:10;;;;;;;37.47;16.83;;;-0.80;99.70;;;;;;5067806;28;20458;-73
2021/03/08 07:26:36;;;;;;;40.37;17.67;;;-0.70;99.70;;;;;;5055676;28;20502;-73
2021/03/08 07:29:11;;;;;;;41.03;17.53;;;-0.80;99.70;;;;;;5064546;28;20833;-73
2021/03/08 07:31:40;;;;;;;42.10;18.20;;;-0.50;99.70;;;;;;5069559;28;20452;-73
2021/03/08 07:34:09;;;;;;;40.33;17.53;;;-0.30;99.70;;;;;;5066288;28;20443;-73
2021/03/08 07:36:39;;;;;;;42.73;18.43;;;-0.10;99.70;;;;;;5069208;28;20532;-70
2021/03/08 07:39:14;;;;;;;43.47;18.30;;;0.00;99.70;;;;;;5050948;28;20451;-73
2021/03/08 07:41:51;;;;;;;46.23;18.90;;;0.00;99.70;;;;;;5066302;28;20992;-70
2021/03/08 07:44:22;;;;;;;43.53;19.23;;;0.10;99.70;;;;;;5063567;28;20451;-73
2021/03/08 07:46:50;;;;;;;46.90;18.87;;;0.40;99.70;;;;;;5053197;28;20475;-74
2021/03/08 07:49:17;;;;;;;40.93;18.30;;;0.30;99.70;;;;;;5065600;28;20439;-72
2021/03/08 07:52:04;;;;;;;46.50;18.70;;;0.30;99.70;;;;;;5066841;28;20469;-70
2021/03/08 07:54:50;;;;;;;43.57;19.30;;;0.20;99.70;;;;;;5059423;28;20447;-72
2021/03/08 07:57:17;;;;;;;46.83;18.60;;;0.30;99.70;;;;;;5055576;28;20468;-73
2021/03/08 07:59:43;;;;;;;41.67;17.70;;;0.60;99.70;;;;;;5060462;28;20452;-72
2021/03/08 08:02:10;;;;;;;37.23;18.43;;;0.90;99.70;;;;;;5060410;28;20638;-73
2021/03/08 08:04:37;;;;;;;41.97;19.63;;;1.30;99.70;;;;;;5055678;28;20479;-72
2021/03/08 08:07:06;;;;;;;43.97;20.17;;;1.80;99.70;;;;;;5050604;28;20463;-73
2021/03/08 08:09:33;;;;;;;40.73;19.47;;;2.10;99.70;;;;;;5057780;28;20970;-73
2021/03/08 08:12:00;;;;;;;46.30;21.80;;;2.50;99.70;;;;;;5066832;28;20435;-72
2021/03/08 08:14:27;;;;;;;43.07;20.10;;;3.00;99.70;;;;;;5063088;28;20501;-73
2021/03/08 08:16:55;;;;;;;42.27;21.43;;;4.20;99.70;;;;;;5065078;28;20471;-73
2021/03/08 08:19:23;;;;;;;41.17;19.47;;;4.10;99.70;;;;;;5070108;28;20442;-73
2021/03/08 08:21:54;;;;;;;40.23;20.10;;;4.30;99.70;;;;;;5070388;28;20478;-73
2021/03/08 08:24:23;;;;;;;40.40;20.30;;;4.30;99.70;;;;;;5071576;28;20497;-73
2021/03/08 08:26:51;;;;;;;46.33;19.73;;;4.60;99.70;;;;;;5070920;28;20546;-72
2021/03/08 08:29:22;;;;;;;39.93;19.60;;;4.90;99.30;;;;;;5070254;28;20533;-73
2021/03/08 08:31:59;;;;;;;38.57;19.30;;;4.50;99.70;;;;;;5052132;28;20830;-75
2021/03/08 08:34:34;;;;;;;36.03;17.67;;;4.30;99.70;;;;;;5065355;28;20470;-73
2021/03/08 08:37:05;;;;;;;41.53;18.63;;;5.00;99.00;;;;;;5066301;28;20719;-73
2021/03/08 08:39:31;;;;;;;39.47;19.00;;;4.30;98.40;;;;;;5064595;28;20542;-72
2021/03/08 08:42:13;;;;;;;39.83;18.57;;;4.90;98.20;;;;;;5051772;28;20481;-72
2021/03/08 08:44:40;;;;;;;37.57;18.33;;;5.40;96.80;;;;;;5088040;28;20445;-72
2021/03/08 08:47:22;;;;;;;39.23;19.20;;;5.00;96.70;;;;;;5075629;28;20481;-72
2021/03/08 08:49:51;;;;;;;37.57;18.90;;;5.10;96.90;;;;;;5067066;28;20623;-71
2021/03/08 08:52:38;;;;;;;39.27;19.47;;;4.40;98.10;;;;;;5071669;28;20870;-70
2021/03/08 08:55:05;;;;;;;38.13;19.37;;;4.50;99.00;;;;;;5068627;28;20805;-71
2021/03/08 08:57:31;;;;;;;37.37;20.20;;;4.90;97.90;;;;;;5068761;28;20477;-72
2021/03/08 09:00:19;;;;;;;37.50;19.53;;;5.70;96.60;;;;;;5069037;28;20859;-72
2021/03/08 09:02:45;;;;;;;41.07;20.10;;;4.50;98.30;;;;;;5068300;28;20443;-71
2021/03/08 09:05:40;;;;;;;37.17;20.00;;;4.90;97.70;;;;;;5069281;28;20479;-70
2021/03/08 09:08:23;;;;;;;42.70;20.00;;;4.70;98.20;;;;;;5070128;28;20501;-71
2021/03/08 09:10:49;;;;;;;41.07;20.53;;;5.10;98.40;;;;;;5070479;28;20503;-72
2021/03/08 09:13:16;;;;;;;39.13;19.10;;;5.00;97.60;;;;;;5069880;28;20446;-72
2021/03/08 09:15:42;;;;;;;39.77;19.33;;;5.50;96.90;;;;;;5069598;28;20466;-72
2021/03/08 09:18:09;;;;;;;40.73;19.40;;;5.70;96.80;;;;;;5069003;28;20449;-72
2021/03/08 09:20:36;;;;;;;36.50;19.00;;;6.10;94.40;;;;;;5069550;28;20834;-71
2021/03/08 09:23:04;;;;;;;37.13;18.97;;;6.40;94.00;;;;;;5061117;28;21015;-71
2021/03/08 09:25:32;;;;;;;36.30;18.70;;;6.50;93.20;;;;;;5052358;28;20855;-72
2021/03/08 09:28:15;;;;;;;37.40;17.83;;;6.70;92.70;;;;;;5061206;28;20473;-73
2021/03/08 09:30:44;;;;;;;36.73;17.40;;;6.50;92.60;;;;;;5049761;28;20432;-72
2021/03/08 09:33:11;;;;;;;34.23;17.87;;;6.80;93.40;;;;;;5061590;28;20428;-72
2021/03/08 09:35:39;;;;;;;37.83;18.50;;;6.30;91.90;;;;;;5068993;28;20512;-72
2021/03/08 09:38:08;;;;;;;33.20;16.57;;;6.20;93.90;;;;;;5067253;28;20436;-72
2021/03/08 09:40:36;;;;;;;39.70;17.80;;;6.80;93.60;;;;;;5066050;28;20658;-72
2021/03/08 09:43:16;;;;;;;34.67;17.47;;;7.30;91.10;;;;;;5068987;28;20810;-69
2021/03/08 09:45:42;;;;;;;38.40;17.63;;;6.90;90.10;;;;;;5061501;28;20742;-70
2021/03/08 09:48:12;;;;;;;35.63;17.90;;;6.80;91.70;;;;;;5057122;28;20940;-72
2021/03/08 09:50:39;;;;;;;34.30;18.03;;;7.20;90.80;;;;;;5066496;28;20449;-71
2021/03/08 09:53:06;;;;;;;32.97;17.13;;;7.30;90.60;;;;;;5064153;28;20444;-71
2021/03/08 09:55:35;;;;;;;34.30;17.10;;;7.60;89.90;;;;;;5050173;28;20901;-72
2021/03/08 09:58:09;;;;;;;30.77;16.80;;;7.60;89.40;;;;;;5079019;28;20442;-72
2021/03/08 10:00:37;;;;;;;32.57;16.70;;;7.80;88.90;;;;;;5088050;28;20481;-72
2021/03/08 10:03:05;;;;;;;35.03;17.43;;;8.30;88.60;;;;;;5069182;28;20508;-71
2021/03/08 10:05:43;;;;;;;32.97;17.73;;;8.40;86.70;;;;;;5068985;28;20463;-71
2021/03/08 10:08:11;;;;;;;36.10;18.60;;;7.60;87.90;;;;;;5069264;28;20853;-71
2021/03/08 10:10:40;;;;;;;35.30;17.50;;;7.40;89.00;;;;;;5068470;28;20435;-71
2021/03/08 10:13:06;;;;;;;44.17;17.40;;;7.30;89.40;;;;;;5068916;28;20446;-72
2021/03/08 10:15:43;;;;;;;33.10;17.40;;;7.10;90.90;;;;;;5067095;28;20908;-72
2021/03/08 10:18:10;;;;;;;36.03;17.50;;;6.80;90.70;;;;;;5068237;28;20465;-73
2021/03/08 10:20:47;;;;;;;32.80;16.80;;;6.50;90.90;;;;;;5068463;28;20487;-73
2021/03/08 10:23:16;;;;;;;43.47;17.90;;;6.80;92.50;;;;;;5069126;28;20881;-72
2021/03/08 10:25:43;;;;;;;42.73;18.73;;;6.40;92.80;;;;;;5068386;28;20852;-72
2021/03/08 10:28:09;;;;;;;33.97;17.30;;;5.90;93.40;;;;;;5068392;28;20447;-71
2021/03/08 10:30:36;;;;;;;33.60;16.30;;;6.20;94.00;;;;;;5069966;28;20497;-72
2021/03/08 10:33:05;;;;;;;34.67;15.47;;;6.30;91.70;;;;;;5068819;28;20442;-70
2021/03/08 10:35:34;;;;;;;35.77;16.30;;;6.40;92.50;;;;;;5068950;28;20469;-71
2021/03/08 10:38:01;;;;;;;34.50;17.20;;;6.10;93.90;;;;;;5068947;28;20454;-68
2021/03/08 10:40:29;;;;;;;34.77;17.27;;;5.70;93.50;;;;;;5068243;28;20838;-69
2021/03/08 10:42:59;;;;;;;34.37;16.70;;;5.70;94.70;;;;;;5068496;28;20443;-69
2021/03/08 10:45:27;;;;;;;32.93;15.43;;;5.60;94.50;;;;;;5048938;28;20470;-71
2021/03/08 10:48:11;;;;;;;31.73;15.33;;;5.30;95.30;;;;;;5055830;28;21012;-70
2021/03/08 10:50:42;;;;;;;29.97;14.90;;;5.70;95.50;;;;;;5069791;28;20442;-68
2021/03/08 10:53:09;;;;;;;29.27;15.00;;;5.80;94.00;;;;;;5067579;28;20435;-69
2021/03/08 10:55:36;;;;;;;32.40;15.90;;;5.70;92.00;;;;;;5067798;28;20471;-70
2021/03/08 10:58:03;;;;;;;27.63;14.00;;;5.40;92.60;;;;;;5067098;28;20486;-69
2021/03/08 11:00:29;;;;;;;29.47;13.90;;;5.50;92.80;;;;;;5067246;28;20991;-70
2021/03/08 11:02:55;;;;;;;29.50;14.20;;;5.80;92.00;;;;;;5069979;28;20451;-69
2021/03/08 11:05:25;;;;;;;27.83;13.80;;;5.90;91.30;;;;;;5068086;28;20632;-70
2021/03/08 11:07:52;;;;;;;29.70;13.80;;;5.80;91.70;;;;;;5068996;28;20454;-66
2021/03/08 11:10:32;;;;;;;29.43;13.90;;;5.90;91.00;;;;;;5068857;28;20819;-69
2021/03/08 11:13:04;;;;;;;28.20;14.23;;;5.60;90.80;;;;;;5068608;28;20450;-69
2021/03/08 11:15:30;;;;;;;28.37;12.93;;;5.50;92.20;;;;;;5067743;28;20865;-68
2021/03/08 11:17:57;;;;;;;29.47;14.10;;;5.50;93.20;;;;;;5066880;28;20443;-71
2021/03/08 11:20:27;;;;;;;28.20;13.60;;;5.80;91.00;;;;;;5068309;28;20916;-70
2021/03/08 11:22:58;;;;;;;26.30;13.27;;;5.90;90.90;;;;;;5066316;28;20457;-71
2021/03/08 11:25:37;;;;;;;26.43;12.97;;;6.10;90.10;;;;;;5063628;28;20964;-71
2021/03/08 11:28:07;;;;;;;24.90;11.37;;;5.80;90.10;;;;;;5046880;28;20941;-70
2021/03/08 11:30:34;;;;;;;28.60;13.60;;;5.80;89.40;;;;;;5047906;28;20821;-71
2021/03/08 11:33:05;;;;;;;27.40;11.77;;;5.40;89.00;;;;;;5067691;28;20944;-71
2021/03/08 11:35:32;;;;;;;25.30;12.20;;;5.40;89.80;;;;;;5051423;28;20444;-70
2021/03/08 11:38:02;;;;;;;24.10;11.53;;;5.70;88.80;;;;;;5047811;28;20451;-71
2021/03/08 11:40:30;;;;;;;23.00;11.43;;;5.50;86.90;;;;;;5061114;28;20501;-71
2021/03/08 11:42:56;;;;;;;27.73;11.27;;;5.70;88.00;;;;;;5066812;28;20447;-70
2021/03/08 11:45:24;;;;;;;40.20;12.90;;;5.60;88.20;;;;;;5066678;28;20501;-69
2021/03/08 11:47:52;;;;;;;28.93;12.37;;;6.00;89.30;;;;;;5061561;28;20961;-67
2021/03/08 11:50:19;;;;;;;21.83;11.23;;;6.20;88.40;;;;;;5051197;28;20444;-70
2021/03/08 11:52:46;;;;;;;22.87;10.97;;;6.40;86.10;;;;;;5051021;28;20459;-69
2021/03/08 11:55:13;;;;;;;22.87;10.97;;;6.30;86.30;;;;;;5070414;28;20454;-69
2021/03/08 11:57:42;;;;;;;23.00;11.90;;;6.20;85.50;;;;;;5072157;28;20450;-70
2021/03/08 12:00:09;;;;;;;28.33;12.00;;;6.10;84.70;;;;;;5069498;28;20519;-70
2021/03/08 12:02:36;;;;;;;25.47;12.60;;;6.00;84.30;;;;;;5070599;28;20921;-70
2021/03/08 12:05:03;;;;;;;24.97;11.80;;;5.90;85.20;;;;;;5070283;28;20453;-68
2021/03/08 12:07:29;;;;;;;25.20;12.23;;;6.00;85.50;;;;;;5070400;28;20455;-70
2021/03/08 12:09:56;;;;;;;21.63;11.53;;;6.10;85.90;;;;;;5063328;28;21066;-70
2021/03/08 12:12:22;;;;;;;25.03;12.20;;;6.20;86.30;;;;;;5051110;28;20443;-66
2021/03/08 12:14:48;;;;;;;23.70;11.90;;;6.20;86.60;;;;;;5055572;28;20455;-67
2021/03/08 12:17:15;;;;;;;25.27;12.83;;;6.40;85.00;;;;;;5064312;28;20470;-66
2021/03/08 12:19:42;;;;;;;25.40;13.20;;;6.10;84.60;;;;;;5064771;28;20467;-70
2021/03/08 12:22:08;;;;;;;27.17;13.20;;;6.00;84.70;;;;;;5065033;28;20483;-69
2021/03/08 12:24:34;;;;;;;26.40;13.50;;;6.20;84.90;;;;;;5052947;28;21008;-69
2021/03/08 12:27:01;;;;;;;24.73;12.80;;;6.30;87.60;;;;;;5050044;28;20501;-69
2021/03/08 12:29:27;;;;;;;25.00;12.80;;;6.50;86.10;;;;;;5057588;28;20476;-69
2021/03/08 12:31:53;;;;;;;24.97;12.47;;;6.50;85.10;;;;;;5071190;28;20442;-69
2021/03/08 12:34:19;;;;;;;24.03;12.67;;;6.60;84.70;;;;;;5070975;28;20455;-69
2021/03/08 12:36:46;;;;;;;26.10;12.33;;;6.30;82.70;;;;;;5065028;28;20753;-69
2021/03/08 12:39:12;;;;;;;24.27;11.30;;;6.30;86.30;;;;;;5061047;28;20439;-69
2021/03/08 12:41:39;;;;;;;24.70;12.40;;;6.20;83.70;;;;;;5050892;28;20479;-69
2021/03/08 12:44:06;;;;;;;27.33;13.47;;;5.80;84.40;;;;;;5060123;28;20454;-69